createdAt,value
2022-12-28T00:01:48.044Z,0.61
2022-12-28T00:04:45.700Z,0.53
2022-12-28T00:07:42.608Z,0.79
2022-12-28T00:11:08.478Z,0.77
2022-12-28T00:14:05.941Z,0.79
2022-12-28T00:16:55.235Z,0.71
2022-12-28T00:20:02.994Z,0.55
2022-12-28T00:26:42.778Z,0.64
2022-12-28T00:29:37.415Z,0.69
2022-12-28T00:35:49.594Z,0.75
2022-12-28T00:39:00.700Z,0.64
2022-12-28T00:41:48.943Z,0.59
2022-12-28T00:44:38.430Z,0.66
2022-12-28T00:47:34.842Z,0.72
2022-12-28T00:50:33.776Z,0.76
2022-12-28T00:53:31.695Z,0.46
2022-12-28T00:56:28.077Z,0.66
2022-12-28T00:59:20.268Z,0.29
2022-12-28T01:02:14.494Z,0.56
2022-12-28T01:05:47.964Z,0.49
2022-12-28T01:08:58.080Z,0.37
2022-12-28T01:11:49.894Z,0.62
2022-12-28T01:14:43.422Z,0.60
2022-12-28T01:17:42.075Z,0.62
2022-12-28T01:20:40.686Z,0.57
2022-12-28T01:23:38.128Z,0.56
2022-12-28T01:26:32.281Z,0.61
2022-12-28T01:29:38.863Z,0.57
2022-12-28T01:32:41.195Z,0.62
2022-12-28T01:35:43.414Z,0.67
2022-12-28T01:38:36.905Z,0.68
2022-12-28T01:41:35.349Z,0.74
2022-12-28T01:44:46.914Z,0.72
2022-12-28T01:47:58.257Z,0.76
2022-12-28T01:50:54.126Z,0.11
2022-12-28T01:53:52.076Z,0.76
2022-12-28T01:56:46.195Z,0.69
2022-12-28T01:59:54.439Z,0.64
2022-12-28T02:03:12.452Z,0.61
2022-12-28T02:06:17.058Z,0.71
2022-12-28T02:12:52.026Z,0.69
2022-12-28T02:15:44.549Z,0.66
2022-12-28T02:18:33.649Z,0.71
2022-12-28T02:21:25.066Z,0.73
2022-12-28T02:25:11.543Z,0.69
2022-12-28T02:28:48.556Z,0.51
2022-12-28T02:32:04.285Z,0.78
2022-12-28T02:35:12.106Z,0.74
2022-12-28T02:38:26.547Z,0.43
2022-12-28T02:41:25.635Z,0.66
2022-12-28T02:44:45.678Z,0.79
2022-12-28T02:48:06.730Z,0.78
2022-12-28T02:51:23.841Z,0.79
2022-12-28T02:55:15.965Z,0.69
2022-12-28T02:58:40.524Z,0.83
2022-12-28T03:01:58.229Z,0.82
2022-12-28T03:04:59.779Z,0.81
2022-12-28T03:08:20.749Z,0.79
2022-12-28T03:11:17.835Z,0.83
2022-12-28T03:14:47.846Z,0.69
2022-12-28T03:18:25.988Z,0.79
2022-12-28T03:21:38.539Z,0.84
2022-12-28T03:24:57.860Z,0.77
2022-12-28T03:28:35.464Z,0.75
2022-12-28T03:31:32.607Z,0.65
2022-12-28T03:34:45.618Z,0.36
2022-12-28T03:37:45.775Z,0.51
2022-12-28T03:40:50.561Z,0.69
2022-12-28T03:44:08.638Z,0.59
2022-12-28T03:47:19.796Z,0.68
2022-12-28T03:50:23.265Z,0.64
2022-12-28T03:53:24.021Z,0.60
2022-12-28T03:56:23.327Z,0.21
2022-12-28T03:59:16.247Z,0.32
2022-12-28T04:02:27.090Z,0.48
2022-12-28T04:05:28.120Z,0.52
2022-12-28T04:08:20.552Z,0.52
2022-12-28T04:11:10.877Z,0.63
2022-12-28T04:14:10.999Z,0.50
2022-12-28T04:17:15.992Z,0.59
2022-12-28T04:20:20.650Z,0.54
2022-12-28T04:23:12.903Z,0.50
2022-12-28T04:26:14.454Z,0.52
2022-12-28T04:29:09.880Z,0.49
2022-12-28T04:32:30.784Z,0.47
2022-12-28T04:35:36.374Z,0.57
2022-12-28T04:38:30.085Z,0.65
2022-12-28T04:41:26.249Z,0.63
2022-12-28T04:44:29.046Z,0.65
2022-12-28T04:47:48.853Z,0.17
2022-12-28T04:50:43.988Z,0.73
2022-12-28T04:53:41.245Z,0.75
2022-12-28T04:56:43.291Z,0.75
2022-12-28T04:59:51.036Z,0.52
2022-12-28T05:02:46.479Z,0.93
2022-12-28T05:05:37.519Z,0.73
2022-12-28T05:08:27.886Z,0.97
2022-12-28T05:11:24.995Z,1.06
2022-12-28T05:14:33.575Z,1.09
2022-12-28T05:17:28.266Z,1.18
2022-12-28T05:20:28.749Z,1.16
2022-12-28T05:23:36.267Z,1.16
2022-12-28T05:26:38.194Z,1.26
2022-12-28T05:29:45.486Z,1.32
2022-12-28T05:32:40.459Z,1.33
2022-12-28T05:35:37.247Z,1.35
2022-12-28T05:38:30.767Z,1.31
2022-12-28T05:41:24.706Z,1.30
2022-12-28T05:44:14.027Z,1.19
2022-12-28T05:47:12.214Z,1.24
2022-12-28T05:50:06.881Z,1.22
2022-12-28T05:53:10.369Z,1.22
2022-12-28T05:56:13.965Z,1.08
2022-12-28T05:59:13.844Z,1.19
2022-12-28T06:02:06.675Z,1.07
2022-12-28T06:05:07.506Z,1.15
2022-12-28T06:08:08.078Z,1.12
2022-12-28T06:11:14.990Z,1.19
2022-12-28T06:14:09.901Z,1.21
2022-12-28T06:17:10.820Z,1.14
2022-12-28T06:19:57.615Z,0.75
2022-12-28T06:22:59.267Z,1.26
2022-12-28T06:25:52.074Z,1.23
2022-12-28T06:28:42.655Z,1.12
2022-12-28T06:31:40.964Z,1.25
2022-12-28T06:34:37.459Z,1.07
2022-12-28T06:37:26.664Z,1.23
2022-12-28T06:40:33.386Z,1.06
2022-12-28T06:43:44.527Z,1.01
2022-12-28T06:46:39.871Z,1.12
2022-12-28T06:49:38.257Z,1.04
2022-12-28T06:52:44.778Z,0.96
2022-12-28T06:55:37.887Z,1.11
2022-12-28T06:58:43.049Z,1.12
2022-12-28T07:01:57.351Z,1.09
2022-12-28T07:04:47.189Z,1.13
2022-12-28T07:10:50.520Z,0.93
2022-12-28T07:13:42.650Z,0.91
2022-12-28T07:17:00.608Z,1.07
2022-12-28T07:19:58.844Z,1.18
2022-12-28T07:23:24.560Z,1.20
2022-12-28T07:26:19.143Z,0.80
2022-12-28T07:29:27.995Z,0.77
2022-12-28T07:32:29.359Z,0.88
2022-12-28T07:35:31.015Z,1.11
2022-12-28T07:38:41.035Z,1.25
2022-12-28T07:41:40.189Z,1.24
2022-12-28T07:44:49.082Z,1.27
2022-12-28T07:48:04.950Z,1.32
2022-12-28T07:51:38.150Z,1.05
2022-12-28T07:54:42.344Z,1.30
2022-12-28T07:57:51.268Z,1.43
2022-12-28T08:00:48.753Z,1.43
2022-12-28T08:04:48.844Z,1.42
2022-12-28T08:08:44.696Z,1.66
2022-12-28T08:11:42.461Z,1.63
2022-12-28T08:18:30.134Z,1.66
2022-12-28T08:24:59.181Z,1.76
2022-12-28T08:28:00.409Z,1.82
2022-12-28T08:30:59.095Z,1.87
2022-12-28T08:33:58.209Z,1.88
2022-12-28T08:36:54.925Z,1.34
2022-12-28T08:39:54.779Z,1.99
2022-12-28T08:42:55.179Z,1.56
2022-12-28T08:46:09.469Z,2.12
2022-12-28T08:48:59.692Z,2.09
2022-12-28T08:51:59.437Z,2.22
2022-12-28T08:55:10.895Z,2.26
2022-12-28T08:58:04.140Z,2.32
2022-12-28T09:01:03.720Z,2.34
2022-12-28T09:03:57.458Z,2.36
2022-12-28T09:06:49.325Z,2.13
2022-12-28T09:09:51.556Z,2.28
2022-12-28T09:13:15.791Z,2.40
2022-12-28T09:17:25.462Z,2.42
2022-12-28T09:20:48.015Z,2.43
2022-12-28T09:30:24.672Z,2.53
2022-12-28T09:34:41.424Z,2.52
2022-12-28T09:37:57.501Z,2.61
2022-12-28T09:40:47.089Z,2.51
2022-12-28T09:44:04.416Z,2.64
2022-12-28T09:47:28.381Z,2.73
2022-12-28T09:54:12.997Z,2.84
2022-12-28T09:57:05.108Z,2.91
2022-12-28T10:00:03.322Z,3.02
2022-12-28T10:03:03.750Z,2.71
2022-12-28T10:05:58.265Z,3.19
2022-12-28T10:09:11.390Z,3.28
2022-12-28T10:12:09.835Z,3.08
2022-12-28T10:15:07.317Z,3.38
2022-12-28T10:18:13.693Z,3.47
2022-12-28T10:21:41.463Z,3.59
2022-12-28T10:24:37.330Z,3.61
2022-12-28T10:27:36.637Z,3.56
2022-12-28T10:30:33.835Z,3.70
2022-12-28T10:33:32.371Z,3.34
2022-12-28T10:36:47.304Z,3.79
2022-12-28T10:43:20.938Z,3.71
2022-12-28T10:46:58.157Z,4.13
2022-12-28T11:00:30.279Z,4.17
2022-12-28T11:03:24.324Z,4.23
2022-12-28T11:18:23.001Z,4.23
2022-12-28T11:22:03.855Z,4.25
2022-12-28T11:25:06.861Z,4.18
2022-12-28T11:28:51.168Z,4.27
2022-12-28T11:32:03.708Z,4.25
2022-12-28T11:35:16.919Z,4.18
2022-12-28T11:39:47.833Z,4.36
2022-12-28T11:43:37.962Z,4.41
2022-12-28T11:46:38.003Z,4.45
2022-12-28T11:50:43.553Z,4.51
2022-12-28T11:53:47.297Z,4.52
2022-12-28T11:56:52.383Z,4.55
2022-12-28T12:00:22.303Z,4.53
2022-12-28T12:04:25.619Z,4.66
2022-12-28T12:08:20.159Z,4.65
2022-12-28T12:12:36.349Z,4.74
2022-12-28T12:15:44.272Z,4.54
2022-12-28T12:18:57.329Z,4.48
2022-12-28T12:27:27.262Z,4.45
2022-12-28T12:30:20.899Z,5.01
2022-12-28T12:33:14.220Z,5.08
2022-12-28T12:36:27.027Z,4.59
2022-12-28T12:39:43.274Z,5.05
2022-12-28T12:42:41.676Z,4.84
2022-12-28T12:45:36.434Z,5.01
2022-12-28T12:48:31.421Z,5.00
2022-12-28T12:51:42.374Z,4.95
2022-12-28T12:54:49.822Z,4.71
2022-12-28T12:57:53.900Z,4.86
2022-12-28T13:00:48.388Z,5.01
2022-12-28T13:03:39.609Z,5.00
2022-12-28T13:06:25.985Z,4.99
2022-12-28T13:09:19.951Z,4.29
2022-12-28T13:12:39.868Z,4.28
2022-12-28T13:15:26.501Z,4.49
2022-12-28T13:21:43.775Z,4.32
2022-12-28T13:24:34.667Z,4.90
2022-12-28T13:27:21.261Z,4.67
2022-12-28T13:30:17.710Z,4.50
2022-12-28T13:33:03.999Z,4.32
2022-12-28T13:36:06.805Z,4.96
2022-12-28T13:39:22.899Z,4.47
2022-12-28T13:42:17.384Z,4.44
2022-12-28T13:45:04.998Z,4.15
2022-12-28T13:47:52.502Z,4.57
2022-12-28T13:50:42.584Z,4.37
2022-12-28T13:53:31.117Z,4.55
2022-12-28T13:56:18.549Z,4.53
2022-12-28T13:59:10.540Z,4.52
2022-12-28T14:01:58.888Z,5.01
2022-12-28T14:04:54.165Z,5.03
2022-12-28T14:07:40.924Z,4.52
2022-12-28T14:10:28.351Z,4.62
2022-12-28T14:13:15.629Z,4.60
2022-12-28T14:16:02.900Z,4.52
2022-12-28T14:18:50.199Z,4.34
2022-12-28T14:21:43.065Z,4.43
2022-12-28T14:24:29.673Z,4.29
2022-12-28T14:27:17.165Z,5.10
2022-12-28T14:30:06.944Z,5.10
2022-12-28T14:32:54.315Z,4.43
2022-12-28T14:35:51.053Z,4.82
2022-12-28T14:38:47.919Z,4.71
2022-12-28T14:41:39.100Z,4.86
2022-12-28T14:44:39.250Z,4.72
2022-12-28T14:47:37.398Z,5.07
2022-12-28T14:50:29.156Z,5.12
2022-12-28T14:53:18.545Z,5.13
2022-12-28T14:59:34.204Z,4.73
2022-12-28T15:00:26.583Z,4.53
2022-12-28T15:02:36.216Z,5.17
2022-12-28T15:05:46.205Z,4.38
2022-12-28T15:08:35.058Z,4.84
2022-12-28T15:11:28.523Z,4.95
2022-12-28T15:14:20.735Z,4.81
2022-12-28T15:17:11.337Z,4.84
2022-12-28T15:20:01.761Z,4.59
2022-12-28T15:22:50.613Z,4.59
2022-12-28T15:25:38.467Z,4.80
2022-12-28T15:28:25.106Z,4.59
2022-12-28T15:31:14.429Z,4.59
2022-12-28T15:34:21.163Z,5.03
2022-12-28T15:37:10.728Z,4.64
2022-12-28T15:39:59.671Z,5.03
2022-12-28T15:42:46.856Z,5.01
2022-12-28T15:45:33.028Z,4.87
2022-12-28T15:48:26.891Z,4.61
2022-12-28T15:51:13.174Z,4.99
2022-12-28T15:54:02.551Z,4.68
2022-12-28T15:57:01.188Z,4.51
2022-12-28T15:59:53.584Z,4.91
2022-12-28T16:02:42.016Z,4.63
2022-12-28T16:05:29.488Z,5.24
2022-12-28T16:08:15.180Z,4.97
2022-12-28T16:11:15.945Z,4.56
2022-12-28T16:14:17.988Z,4.84
2022-12-28T16:17:04.457Z,4.45
2022-12-28T16:19:53.182Z,4.84
2022-12-28T16:22:40.001Z,4.71
2022-12-28T16:25:27.124Z,4.51
2022-12-28T16:28:14.156Z,4.79
2022-12-28T16:31:05.564Z,4.63
2022-12-28T16:33:57.942Z,5.06
2022-12-28T16:36:47.144Z,4.33
2022-12-28T16:39:38.237Z,4.78
2022-12-28T16:42:28.391Z,4.65
2022-12-28T16:45:17.454Z,4.60
2022-12-28T16:48:04.484Z,4.34
2022-12-28T16:51:00.584Z,4.29
2022-12-28T16:53:53.803Z,4.98
2022-12-28T16:56:42.828Z,4.24
2022-12-28T16:59:29.534Z,5.00
2022-12-28T17:05:25.598Z,4.13
2022-12-28T17:08:18.015Z,4.60
2022-12-28T17:11:09.478Z,4.46
2022-12-28T17:14:06.328Z,4.69
2022-12-28T17:16:52.424Z,4.87
2022-12-28T17:19:41.564Z,4.40
2022-12-28T17:22:27.866Z,4.08
2022-12-28T17:25:14.892Z,4.34
2022-12-28T17:28:01.347Z,4.55
2022-12-28T17:30:47.719Z,4.31
2022-12-28T17:33:38.938Z,4.53
2022-12-28T17:36:27.081Z,4.80
2022-12-28T17:39:19.636Z,4.25
2022-12-28T17:42:07.381Z,4.75
2022-12-28T17:44:55.753Z,4.57
2022-12-28T17:47:48.889Z,4.17
2022-12-28T17:50:47.049Z,4.40
2022-12-28T17:53:42.855Z,4.45
2022-12-28T17:56:40.825Z,4.43
2022-12-28T17:59:31.286Z,4.17
2022-12-28T18:02:18.608Z,4.49
2022-12-28T18:05:10.974Z,4.33
2022-12-28T18:08:02.019Z,4.21
2022-12-28T18:10:52.252Z,4.36
2022-12-28T18:13:43.092Z,4.27
2022-12-28T18:16:29.588Z,4.57
2022-12-28T18:19:21.033Z,4.29
2022-12-28T18:22:09.632Z,4.45
2022-12-28T18:25:16.220Z,5.07
2022-12-28T18:28:09.875Z,4.31
2022-12-28T18:31:01.463Z,4.42
2022-12-28T18:33:58.946Z,4.81
2022-12-28T18:36:47.545Z,4.67
2022-12-28T18:39:34.815Z,4.71
2022-12-28T18:42:21.119Z,4.50
2022-12-28T18:45:08.655Z,5.14
2022-12-28T18:47:55.297Z,4.75
2022-12-28T18:51:02.318Z,4.78
2022-12-28T18:53:51.034Z,4.63
2022-12-28T18:56:37.994Z,4.93
2022-12-28T18:59:24.769Z,5.23
2022-12-28T19:02:19.333Z,4.48
2022-12-28T19:05:06.831Z,5.13
2022-12-28T19:07:54.338Z,4.65
2022-12-28T19:10:42.900Z,5.25
2022-12-28T19:13:32.888Z,4.60
2022-12-28T19:16:30.961Z,4.76
2022-12-28T19:19:21.335Z,5.24
2022-12-28T19:22:07.758Z,4.82
2022-12-28T19:24:57.646Z,4.48
2022-12-28T19:27:47.989Z,4.85
2022-12-28T19:30:36.370Z,4.81
2022-12-28T19:33:24.998Z,4.54
2022-12-28T19:36:20.140Z,4.48
2022-12-28T19:39:09.444Z,4.50
2022-12-28T19:42:03.327Z,4.71
2022-12-28T19:44:49.480Z,4.53
2022-12-28T19:47:41.946Z,4.52
2022-12-28T19:50:28.150Z,4.44
2022-12-28T19:53:14.989Z,4.92
2022-12-28T19:56:06.265Z,4.45
2022-12-28T19:58:57.820Z,4.55
2022-12-28T20:01:47.307Z,4.51
2022-12-28T20:04:34.567Z,4.61
2022-12-28T20:07:20.676Z,4.47
2022-12-28T20:10:08.499Z,4.42
2022-12-28T20:12:55.500Z,4.40
2022-12-28T20:15:44.486Z,4.39
2022-12-28T20:18:30.748Z,4.90
2022-12-28T20:21:19.744Z,4.61
2022-12-28T20:24:08.131Z,4.84
2022-12-28T20:27:01.545Z,5.02
2022-12-28T20:29:48.435Z,4.96
2022-12-28T20:32:39.679Z,4.79
2022-12-28T20:35:30.352Z,4.58
2022-12-28T20:38:16.888Z,4.68
2022-12-28T20:41:09.441Z,4.61
2022-12-28T20:43:56.279Z,5.02
2022-12-28T20:46:43.639Z,5.04
2022-12-28T20:49:31.924Z,4.91
2022-12-28T20:52:17.874Z,4.56
2022-12-28T20:55:08.667Z,4.63
2022-12-28T20:57:54.609Z,5.35
2022-12-28T21:00:43.111Z,4.62
2022-12-28T21:03:31.015Z,4.94
2022-12-28T21:06:18.174Z,5.15
2022-12-28T21:09:04.409Z,4.96
2022-12-28T21:11:50.789Z,4.97
2022-12-28T21:14:37.035Z,4.66
2022-12-28T21:17:24.893Z,5.37
2022-12-28T21:20:13.928Z,5.23
2022-12-28T21:23:02.172Z,5.04
2022-12-28T21:25:49.395Z,4.74
2022-12-28T21:28:35.876Z,5.14
2022-12-28T21:31:31.836Z,4.91
2022-12-28T21:34:20.924Z,4.66
2022-12-28T21:37:25.311Z,5.48
2022-12-28T21:40:14.323Z,5.18
2022-12-28T21:43:05.167Z,5.50
2022-12-28T21:46:02.547Z,5.00
2022-12-28T21:48:53.266Z,4.84
2022-12-28T21:51:42.583Z,4.84
2022-12-28T21:54:29.157Z,5.00
2022-12-28T21:57:26.318Z,5.17
2022-12-28T22:00:36.192Z,5.13
2022-12-28T22:03:42.006Z,5.20
2022-12-28T22:06:30.897Z,5.00
2022-12-28T22:09:35.747Z,4.91
2022-12-28T22:12:34.858Z,5.17
2022-12-28T22:15:44.365Z,4.97
2022-12-28T22:19:00.976Z,4.97
2022-12-28T22:21:37.940Z,4.85
2022-12-28T22:24:24.476Z,5.60
2022-12-28T22:27:19.642Z,5.20
2022-12-28T22:30:10.777Z,4.99
2022-12-28T22:33:01.473Z,5.22
2022-12-28T22:35:48.659Z,5.03
2022-12-28T22:38:36.723Z,5.27
2022-12-28T22:41:23.146Z,5.43
2022-12-28T22:44:10.042Z,5.25
2022-12-28T22:47:01.366Z,5.27
2022-12-28T22:49:47.959Z,5.66
2022-12-28T22:52:34.403Z,5.21
2022-12-28T22:55:21.242Z,5.02
2022-12-28T22:58:10.572Z,4.92
2022-12-28T23:01:27.699Z,5.18
2022-12-28T23:04:14.768Z,5.28
2022-12-28T23:07:04.108Z,4.83
2022-12-28T23:09:50.394Z,5.24
2022-12-28T23:12:36.618Z,5.07
2022-12-28T23:15:25.160Z,5.07
2022-12-28T23:18:30.670Z,5.06
2022-12-28T23:21:41.485Z,5.00
2022-12-28T23:24:47.013Z,5.05
2022-12-28T23:27:38.920Z,5.48
2022-12-28T23:30:25.981Z,5.05
2022-12-28T23:33:12.211Z,5.00
2022-12-28T23:36:02.667Z,5.15
2022-12-28T23:38:49.627Z,5.13
2022-12-28T23:41:48.768Z,4.71
2022-12-28T23:44:34.739Z,5.11
2022-12-28T23:47:21.398Z,4.77
2022-12-28T23:50:08.459Z,5.04
2022-12-28T23:52:55.361Z,4.72
2022-12-28T23:55:42.466Z,4.75
2022-12-28T23:58:29.168Z,5.04
